createdAt,value
2023-02-15T00:35:03.572Z,99.8
2023-02-15T00:55:03.556Z,99.9
2023-02-15T01:55:03.656Z,100
2023-02-15T02:15:03.488Z,100
2023-02-15T02:35:03.469Z,100
2023-02-15T02:55:03.445Z,100
2023-02-15T03:15:03.442Z,100
2023-02-15T03:55:03.401Z,100
2023-02-15T05:15:03.344Z,100
2023-02-15T05:35:03.334Z,100
2023-02-15T05:55:03.312Z,100
2023-02-15T06:15:03.369Z,100
2023-02-15T06:35:03.289Z,100
2023-02-15T06:55:03.263Z,100
2023-02-15T07:15:03.233Z,100
2023-02-15T07:35:03.217Z,100
2023-02-15T07:55:03.212Z,100
2023-02-15T08:35:03.175Z,100
2023-02-15T08:55:03.145Z,96.8
2023-02-15T09:15:03.299Z,84.9
2023-02-15T09:35:03.094Z,72.3
2023-02-15T09:55:03.056Z,65.7
2023-02-15T10:15:03.005Z,63.1
2023-02-15T10:35:02.978Z,62
2023-02-15T10:55:02.946Z,58.5
2023-02-15T11:15:02.927Z,56.4
2023-02-15T11:35:02.877Z,53.6
2023-02-15T11:55:02.868Z,50.4
2023-02-15T12:15:02.794Z,49.4
2023-02-15T12:35:02.745Z,45.2
2023-02-15T12:55:02.719Z,42.7
2023-02-15T13:15:02.713Z,40.4
2023-02-15T13:35:03.510Z,41.6
2023-02-15T13:55:02.607Z,38.7
2023-02-15T14:15:02.555Z,38.4
2023-02-15T14:35:02.535Z,37.4
2023-02-15T14:55:02.476Z,38.3
2023-02-15T15:15:02.454Z,41.1
2023-02-15T15:35:02.466Z,44.6
2023-02-15T15:55:02.356Z,47.9
2023-02-15T16:35:02.279Z,59.5
2023-02-15T17:15:02.213Z,70.4
2023-02-15T18:15:02.150Z,83
2023-02-15T19:55:02.000Z,80.5
2023-02-15T20:15:01.991Z,84.6
2023-02-15T20:35:01.924Z,85
2023-02-15T21:15:01.878Z,88.9
2023-02-15T21:35:01.864Z,89.8
2023-02-15T21:55:01.834Z,92.3
2023-02-15T22:55:01.757Z,94.6
2023-02-15T23:15:01.725Z,95.2
